createdAt,value
2018-08-17T00:00:25.631Z,18.20
2018-08-17T00:02:53.545Z,18.00
2018-08-17T00:05:21.529Z,18.00
2018-08-17T00:07:49.558Z,18.10
2018-08-17T00:10:17.386Z,18.10
2018-08-17T00:12:45.451Z,18.10
2018-08-17T00:15:13.306Z,18.10
2018-08-17T00:17:41.161Z,18.00
2018-08-17T00:20:09.073Z,17.90
2018-08-17T00:22:36.971Z,17.90
2018-08-17T00:25:04.991Z,17.80
2018-08-17T00:27:32.818Z,17.80
2018-08-17T00:30:00.632Z,17.70
2018-08-17T00:32:28.491Z,17.60
2018-08-17T00:34:56.347Z,17.70
2018-08-17T00:37:24.232Z,17.70
2018-08-17T00:39:52.071Z,17.70
2018-08-17T00:42:19.907Z,17.70
2018-08-17T00:44:47.788Z,17.70
2018-08-17T00:47:15.678Z,17.80
2018-08-17T00:49:43.473Z,17.80
2018-08-17T00:52:11.359Z,17.90
2018-08-17T00:54:39.241Z,17.90
2018-08-17T00:57:07.101Z,17.90
2018-08-17T00:59:34.957Z,17.90
2018-08-17T01:02:02.837Z,18.00
2018-08-17T01:04:30.675Z,17.90
2018-08-17T01:06:58.479Z,17.90
2018-08-17T01:09:26.425Z,17.90
2018-08-17T01:11:54.277Z,17.80
2018-08-17T01:14:22.134Z,17.90
2018-08-17T01:16:50.007Z,17.90
2018-08-17T01:19:17.847Z,17.80
2018-08-17T01:21:45.740Z,17.80
2018-08-17T01:24:13.559Z,17.70
2018-08-17T01:26:41.443Z,17.60
2018-08-17T01:29:09.321Z,17.50
2018-08-17T01:31:37.157Z,17.50
2018-08-17T01:34:05.080Z,17.40
2018-08-17T01:36:32.950Z,17.40
2018-08-17T01:39:00.906Z,17.50
2018-08-17T01:41:28.745Z,17.50
2018-08-17T01:43:56.588Z,17.50
2018-08-17T01:46:24.423Z,17.50
2018-08-17T01:48:52.242Z,17.50
2018-08-17T01:51:20.051Z,17.60
2018-08-17T01:53:47.883Z,17.60
2018-08-17T01:56:15.760Z,17.70
2018-08-17T01:58:43.581Z,17.70
2018-08-17T02:01:11.432Z,17.70
2018-08-17T02:03:39.358Z,17.70
2018-08-17T02:06:07.252Z,17.80
2018-08-17T02:08:35.091Z,17.80
2018-08-17T02:11:02.959Z,17.80
2018-08-17T02:13:30.761Z,17.70
2018-08-17T02:15:58.724Z,17.80
2018-08-17T02:18:26.528Z,17.80
2018-08-17T02:20:54.350Z,17.70
2018-08-17T02:23:22.281Z,17.60
2018-08-17T02:25:50.114Z,17.60
2018-08-17T02:28:17.989Z,17.60
2018-08-17T02:30:45.824Z,17.50
2018-08-17T02:33:13.637Z,17.60
2018-08-17T02:35:41.495Z,17.60
2018-08-17T02:38:09.360Z,17.50
2018-08-17T02:40:37.228Z,17.50
2018-08-17T02:43:05.163Z,17.50
2018-08-17T02:45:33.007Z,17.50
2018-08-17T02:48:00.844Z,17.50
2018-08-17T02:50:28.650Z,17.50
2018-08-17T02:52:56.500Z,17.50
2018-08-17T02:55:24.329Z,17.50
2018-08-17T02:57:52.156Z,17.50
2018-08-17T03:00:19.975Z,17.50
2018-08-17T03:02:47.798Z,17.50
2018-08-17T03:05:15.576Z,17.50
2018-08-17T03:07:43.387Z,17.50
2018-08-17T03:10:11.276Z,17.60
2018-08-17T03:12:39.134Z,17.50
2018-08-17T03:15:07.097Z,17.60
2018-08-17T03:17:34.919Z,17.50
2018-08-17T03:20:02.792Z,17.50
2018-08-17T03:22:30.628Z,17.50
2018-08-17T03:24:58.513Z,17.50
2018-08-17T03:27:26.323Z,17.50
2018-08-17T03:29:54.118Z,17.50
2018-08-17T03:32:21.947Z,17.60
2018-08-17T03:34:49.775Z,17.50
2018-08-17T03:37:17.785Z,17.50
2018-08-17T03:39:45.612Z,17.50
2018-08-17T03:42:13.425Z,17.40
2018-08-17T03:44:41.259Z,17.40
2018-08-17T03:47:09.046Z,17.50
2018-08-17T03:49:36.873Z,17.40
2018-08-17T03:52:04.764Z,17.40
2018-08-17T03:54:32.653Z,17.50
2018-08-17T03:57:00.604Z,17.40
2018-08-17T03:59:28.410Z,17.50
2018-08-17T04:01:56.226Z,17.40
2018-08-17T04:04:24.020Z,17.50
2018-08-17T04:06:51.851Z,17.50
2018-08-17T04:09:19.672Z,17.50
2018-08-17T04:11:47.699Z,17.50
2018-08-17T04:14:15.651Z,17.50
2018-08-17T04:16:43.479Z,17.50
2018-08-17T04:19:11.256Z,17.40
2018-08-17T04:21:39.075Z,17.40
2018-08-17T04:26:41.791Z,17.30
2018-08-17T04:29:09.579Z,17.30
2018-08-17T04:31:37.451Z,17.40
2018-08-17T04:34:05.302Z,17.40
2018-08-17T04:36:33.115Z,17.30
2018-08-17T04:39:01.035Z,17.30
2018-08-17T04:41:28.840Z,17.30
2018-08-17T04:43:56.702Z,17.30
2018-08-17T04:46:24.653Z,17.20
2018-08-17T04:48:52.527Z,17.20
2018-08-17T04:51:20.376Z,17.20
2018-08-17T04:53:48.273Z,17.20
2018-08-17T04:56:16.133Z,17.10
2018-08-17T04:58:43.976Z,17.10
2018-08-17T05:01:11.828Z,17.10
2018-08-17T05:03:39.637Z,17.10
2018-08-17T05:06:07.481Z,17.10
2018-08-17T05:08:35.313Z,17.10
2018-08-17T05:11:03.166Z,17.20
2018-08-17T05:13:31.040Z,17.20
2018-08-17T05:15:58.933Z,17.20
2018-08-17T05:18:26.776Z,17.20
2018-08-17T05:20:54.593Z,17.10
2018-08-17T05:23:22.470Z,17.20
2018-08-17T05:25:50.265Z,17.20
2018-08-17T05:28:18.125Z,17.20
2018-08-17T05:30:45.949Z,17.20
2018-08-17T05:33:13.823Z,17.10
2018-08-17T05:35:41.658Z,17.10
2018-08-17T05:38:09.499Z,17.10
2018-08-17T05:40:37.353Z,17.10
2018-08-17T05:43:05.337Z,17.10
2018-08-17T05:45:33.180Z,17.10
2018-08-17T05:48:01.006Z,17.10
2018-08-17T05:50:32.104Z,17.10
2018-08-17T05:53:00.231Z,17.10
2018-08-17T05:55:28.317Z,17.20
2018-08-17T05:57:56.539Z,17.20
2018-08-17T06:00:24.518Z,17.20
2018-08-17T06:02:52.420Z,17.30
2018-08-17T06:05:20.377Z,17.30
2018-08-17T06:07:48.205Z,17.30
2018-08-17T06:10:16.141Z,17.40
2018-08-17T06:12:43.991Z,17.40
2018-08-17T06:15:12.143Z,17.50
2018-08-17T06:17:39.975Z,17.40
2018-08-17T06:20:08.489Z,17.50
2018-08-17T06:22:36.349Z,17.40
2018-08-17T06:25:10.073Z,17.40
2018-08-17T06:27:38.107Z,17.30
2018-08-17T06:30:08.203Z,17.50
2018-08-17T06:32:36.429Z,17.50
2018-08-17T06:35:04.579Z,17.60
2018-08-17T06:37:32.420Z,17.60
2018-08-17T06:40:00.286Z,17.70
2018-08-17T06:42:28.169Z,17.60
2018-08-17T06:44:56.208Z,17.50
2018-08-17T06:47:24.257Z,17.50
2018-08-17T06:49:52.333Z,17.50
2018-08-17T06:52:20.192Z,17.50
2018-08-17T06:54:48.180Z,17.50
2018-08-17T06:57:16.072Z,17.60
2018-08-17T06:59:43.875Z,17.60
2018-08-17T07:02:11.738Z,17.50
2018-08-17T07:04:39.573Z,17.60
2018-08-17T07:07:07.511Z,17.70
2018-08-17T07:09:35.386Z,17.70
2018-08-17T07:12:03.311Z,17.80
2018-08-17T07:14:31.150Z,18.00
2018-08-17T07:16:59.254Z,18.10
2018-08-17T07:19:27.146Z,18.30
2018-08-17T07:21:55.098Z,18.40
2018-08-17T07:24:23.149Z,18.40
2018-08-17T07:26:50.987Z,18.50
2018-08-17T07:29:18.866Z,18.60
2018-08-17T07:31:46.768Z,18.50
2018-08-17T07:34:14.594Z,18.40
2018-08-17T07:36:42.432Z,18.40
2018-08-17T07:39:10.334Z,18.30
2018-08-17T07:41:38.314Z,18.50
2018-08-17T07:44:06.251Z,18.60
2018-08-17T07:46:34.136Z,18.70
2018-08-17T07:49:02.407Z,18.80
2018-08-17T07:51:30.273Z,18.90
2018-08-17T07:53:58.377Z,19.00
2018-08-17T07:56:26.188Z,19.00
2018-08-17T07:58:54.298Z,19.10
2018-08-17T08:01:22.263Z,19.10
2018-08-17T08:03:50.092Z,19.20
2018-08-17T08:06:17.923Z,19.20
2018-08-17T08:08:45.963Z,19.10
2018-08-17T08:11:13.806Z,19.20
2018-08-17T08:13:41.680Z,19.20
2018-08-17T08:16:09.551Z,19.20
2018-08-17T08:18:37.373Z,19.30
2018-08-17T08:21:05.403Z,19.20
2018-08-17T08:23:33.291Z,19.10
2018-08-17T08:26:01.194Z,19.10
2018-08-17T08:28:28.996Z,19.00
2018-08-17T08:30:57.150Z,19.00
2018-08-17T08:33:25.009Z,19.10
2018-08-17T08:35:52.845Z,19.20
2018-08-17T08:38:20.747Z,19.10
2018-08-17T08:40:48.775Z,19.10
2018-08-17T08:43:16.694Z,19.20
2018-08-17T08:45:44.681Z,19.30
2018-08-17T08:48:12.520Z,19.30
2018-08-17T08:50:40.495Z,19.30
2018-08-17T08:53:08.977Z,19.40
2018-08-17T08:55:36.948Z,19.40
2018-08-17T08:58:04.934Z,19.40
2018-08-17T09:00:32.793Z,19.50
2018-08-17T09:03:00.667Z,19.70
2018-08-17T09:05:28.532Z,19.90
2018-08-17T09:07:56.505Z,19.90
2018-08-17T09:10:24.369Z,20.10
2018-08-17T09:12:52.302Z,20.10
2018-08-17T09:15:20.263Z,20.20
2018-08-17T09:17:48.109Z,20.30
2018-08-17T09:20:16.569Z,20.60
2018-08-17T09:22:44.364Z,20.70
2018-08-17T09:25:12.549Z,21.00
2018-08-17T09:27:40.383Z,21.10
2018-08-17T09:30:10.910Z,21.00
2018-08-17T09:32:39.083Z,20.80
2018-08-17T09:35:07.433Z,20.80
2018-08-17T09:37:35.243Z,21.10
2018-08-17T09:40:03.209Z,21.60
2018-08-17T09:42:31.035Z,21.80
2018-08-17T09:44:58.849Z,21.70
2018-08-17T09:47:26.671Z,21.30
2018-08-17T09:49:54.575Z,21.10
2018-08-17T09:52:22.433Z,21.20
2018-08-17T09:54:51.856Z,21.20
2018-08-17T09:57:20.901Z,21.40
2018-08-17T09:59:49.232Z,21.30
2018-08-17T10:02:23.302Z,21.10
2018-08-17T10:04:56.751Z,21.10
2018-08-17T10:07:30.547Z,21.50
2018-08-17T10:10:04.359Z,21.80
2018-08-17T10:12:32.352Z,22.20
2018-08-17T10:15:00.520Z,22.10
2018-08-17T10:17:28.835Z,22.10
2018-08-17T10:19:57.648Z,22.40
2018-08-17T10:22:25.780Z,22.60
2018-08-17T10:25:01.037Z,22.50
2018-08-17T10:27:29.192Z,22.40
2018-08-17T10:29:57.280Z,22.50
2018-08-17T10:32:25.371Z,22.90
2018-08-17T10:34:53.257Z,23.30
2018-08-17T10:37:21.205Z,23.60
2018-08-17T10:39:49.614Z,23.70
2018-08-17T10:42:18.133Z,23.80
2018-08-17T10:44:46.563Z,23.90
2018-08-17T10:47:14.813Z,24.00
2018-08-17T10:49:43.335Z,23.40
2018-08-17T10:52:11.512Z,22.80
2018-08-17T10:54:39.423Z,22.40
2018-08-17T10:57:07.282Z,22.40
2018-08-17T10:59:35.085Z,22.40
2018-08-17T11:02:02.999Z,22.80
2018-08-17T11:04:30.781Z,23.40
2018-08-17T11:06:58.627Z,23.70
2018-08-17T11:09:26.476Z,23.70
2018-08-17T11:11:54.323Z,23.40
2018-08-17T11:14:22.158Z,23.30
2018-08-17T11:16:50.078Z,23.30
2018-08-17T11:19:17.885Z,23.10
2018-08-17T11:21:45.764Z,23.10
2018-08-17T11:24:13.584Z,23.50
2018-08-17T11:26:41.410Z,23.90
2018-08-17T11:29:09.243Z,24.30
2018-08-17T11:31:37.069Z,24.20
2018-08-17T11:34:04.981Z,24.20
2018-08-17T11:36:32.798Z,24.30
2018-08-17T11:39:00.657Z,24.50
2018-08-17T11:41:28.679Z,24.70
2018-08-17T11:43:57.740Z,24.50
2018-08-17T11:46:25.741Z,24.80
2018-08-17T11:48:53.565Z,24.80
2018-08-17T11:51:21.516Z,24.60
2018-08-17T11:53:49.399Z,24.30
2018-08-17T11:56:17.209Z,24.50
2018-08-17T11:58:45.005Z,24.90
2018-08-17T12:01:18.380Z,24.70
2018-08-17T12:03:46.235Z,24.20
2018-08-17T12:06:14.089Z,23.90
2018-08-17T12:08:41.981Z,23.70
2018-08-17T12:11:09.778Z,23.30
2018-08-17T12:13:38.837Z,23.30
2018-08-17T12:16:10.000Z,23.30
2018-08-17T12:18:37.952Z,23.50
2018-08-17T12:21:06.178Z,23.70
2018-08-17T12:23:33.995Z,23.70
2018-08-17T12:26:01.851Z,24.20
2018-08-17T12:28:30.611Z,24.60
2018-08-17T12:30:59.199Z,25.10
2018-08-17T12:33:27.003Z,25.30
2018-08-17T12:35:54.855Z,24.70
2018-08-17T12:38:22.717Z,24.20
2018-08-17T12:40:54.552Z,23.90
2018-08-17T12:43:30.942Z,23.50
2018-08-17T12:45:58.772Z,23.40
2018-08-17T12:48:26.645Z,23.30
2018-08-17T12:50:59.007Z,23.10
2018-08-17T12:53:26.909Z,23.10
2018-08-17T12:55:54.775Z,23.20
2018-08-17T12:58:22.695Z,23.50
2018-08-17T13:00:50.534Z,23.90
2018-08-17T13:03:18.368Z,24.40
2018-08-17T13:05:46.185Z,24.90
2018-08-17T13:08:14.042Z,24.90
2018-08-17T13:10:41.878Z,24.90
2018-08-17T13:13:10.548Z,25.00
2018-08-17T13:15:43.081Z,24.80
2018-08-17T13:18:18.374Z,24.80
2018-08-17T13:20:46.195Z,25.00
2018-08-17T13:23:14.197Z,24.80
2018-08-17T13:25:42.044Z,25.00
2018-08-17T13:28:10.309Z,25.30
2018-08-17T13:30:38.200Z,25.10
2018-08-17T13:33:06.206Z,24.70
2018-08-17T13:35:34.063Z,24.60
2018-08-17T13:38:01.936Z,24.80
2018-08-17T13:40:29.780Z,24.70
2018-08-17T13:42:57.585Z,24.60
2018-08-17T13:45:25.476Z,24.60
2018-08-17T13:47:53.333Z,24.80
2018-08-17T13:50:22.039Z,24.80
2018-08-17T13:52:49.920Z,25.10
2018-08-17T13:55:17.852Z,24.90
2018-08-17T13:57:45.705Z,24.60
2018-08-17T14:00:13.598Z,24.20
2018-08-17T14:02:41.468Z,24.10
2018-08-17T14:05:10.443Z,24.20
2018-08-17T14:07:38.355Z,24.40
2018-08-17T14:10:07.416Z,24.90
2018-08-17T14:12:35.877Z,25.10
2018-08-17T14:15:04.110Z,25.50
2018-08-17T14:17:32.001Z,25.70
2018-08-17T14:19:59.906Z,26.00
2018-08-17T14:22:28.093Z,26.10
2018-08-17T14:24:56.041Z,26.50
2018-08-17T14:27:23.886Z,26.70
2018-08-17T14:29:51.780Z,26.50
2018-08-17T14:32:19.645Z,26.30
2018-08-17T14:34:47.538Z,25.90
2018-08-17T14:37:15.551Z,25.70
2018-08-17T14:39:43.382Z,24.90
2018-08-17T14:42:11.203Z,24.60
2018-08-17T14:44:39.067Z,24.20
2018-08-17T14:47:06.929Z,24.50
2018-08-17T14:49:34.752Z,25.00
2018-08-17T14:52:02.685Z,25.00
2018-08-17T14:54:30.529Z,25.00
2018-08-17T14:56:58.399Z,24.90
2018-08-17T14:59:26.235Z,24.40
2018-08-17T15:01:54.100Z,23.60
2018-08-17T15:04:22.006Z,23.50
2018-08-17T15:06:49.871Z,23.40
2018-08-17T15:09:17.776Z,23.30
2018-08-17T15:11:45.681Z,23.40
2018-08-17T15:14:14.117Z,23.70
2018-08-17T15:16:42.597Z,24.00
2018-08-17T15:19:10.495Z,24.00
2018-08-17T15:21:38.726Z,24.00
2018-08-17T15:24:06.715Z,24.20
2018-08-17T15:26:34.701Z,24.00
2018-08-17T15:29:02.623Z,23.70
2018-08-17T15:31:30.580Z,23.70
2018-08-17T15:33:58.433Z,23.80
2018-08-17T15:36:26.346Z,23.90
2018-08-17T15:38:54.249Z,24.10
2018-08-17T15:41:22.178Z,24.10
2018-08-17T15:43:50.046Z,24.20
2018-08-17T15:46:18.037Z,24.20
2018-08-17T15:48:52.769Z,24.00
2018-08-17T15:51:20.775Z,23.90
2018-08-17T15:53:48.787Z,24.00
2018-08-17T15:56:16.708Z,24.10
2018-08-17T15:58:44.670Z,24.10
2018-08-17T16:01:13.107Z,24.00
2018-08-17T16:03:41.223Z,23.90
2018-08-17T16:06:09.744Z,23.80
2018-08-17T16:08:37.578Z,23.50
2018-08-17T16:11:05.753Z,23.30
2018-08-17T16:13:33.622Z,23.10
2018-08-17T16:16:01.503Z,23.30
2018-08-17T16:18:29.456Z,23.50
2018-08-17T16:20:57.321Z,23.60
2018-08-17T16:23:25.352Z,23.60
2018-08-17T16:25:53.280Z,23.50
2018-08-17T16:28:21.193Z,23.60
2018-08-17T16:30:49.100Z,23.70
2018-08-17T16:33:17.015Z,23.70
2018-08-17T16:35:44.924Z,23.70
2018-08-17T16:38:13.294Z,23.70
2018-08-17T16:40:47.068Z,23.40
2018-08-17T16:43:16.935Z,23.20
2018-08-17T16:45:45.929Z,22.90
2018-08-17T16:48:14.285Z,22.70
2018-08-17T16:50:42.701Z,22.60
2018-08-17T16:53:10.836Z,22.70
2018-08-17T16:55:38.894Z,22.90
2018-08-17T16:58:06.972Z,23.10
2018-08-17T17:00:35.132Z,22.90
2018-08-17T17:03:03.543Z,23.00
2018-08-17T17:05:32.013Z,23.10
2018-08-17T17:08:00.081Z,23.10
2018-08-17T17:10:29.358Z,23.10
2018-08-17T17:12:58.092Z,23.10
2018-08-17T17:15:26.007Z,22.90
2018-08-17T17:17:59.460Z,22.70
2018-08-17T17:20:33.030Z,22.60
2018-08-17T17:23:01.281Z,22.60
2018-08-17T17:25:29.160Z,22.50
2018-08-17T17:27:57.112Z,22.40
2018-08-17T17:30:29.657Z,22.40
2018-08-17T17:32:57.541Z,22.40
2018-08-17T17:35:25.429Z,22.30
2018-08-17T17:37:53.329Z,22.30
2018-08-17T17:40:21.220Z,22.20
2018-08-17T17:42:49.043Z,22.20
2018-08-17T17:45:16.919Z,22.30
2018-08-17T17:47:44.804Z,22.20
2018-08-17T17:50:12.714Z,22.20
2018-08-17T17:52:40.610Z,22.00
2018-08-17T17:55:08.782Z,21.80
2018-08-17T17:57:37.207Z,21.80
2018-08-17T18:00:06.111Z,21.70
2018-08-17T18:02:33.997Z,21.70
2018-08-17T18:05:01.883Z,21.50
2018-08-17T18:07:38.585Z,21.40
2018-08-17T18:10:06.873Z,21.40
2018-08-17T18:12:34.784Z,21.40
2018-08-17T18:15:02.748Z,21.30
2018-08-17T18:17:30.712Z,21.20
2018-08-17T18:19:58.675Z,21.20
2018-08-17T18:22:30.387Z,21.10
2018-08-17T18:25:06.819Z,21.00
2018-08-17T18:27:35.093Z,21.00
2018-08-17T18:30:03.098Z,20.90
2018-08-17T18:32:31.019Z,20.80
2018-08-17T18:34:59.016Z,20.70
2018-08-17T18:37:26.908Z,20.60
2018-08-17T18:39:54.809Z,20.60
2018-08-17T18:42:22.697Z,20.50
2018-08-17T18:44:50.659Z,20.40
2018-08-17T18:47:18.571Z,20.30
2018-08-17T18:49:46.510Z,20.20
2018-08-17T18:52:14.530Z,20.10
2018-08-17T18:54:42.456Z,20.00
2018-08-17T18:57:10.335Z,19.90
2018-08-17T18:59:38.236Z,19.90
2018-08-17T19:02:06.234Z,19.80
2018-08-17T19:04:34.173Z,19.60
2018-08-17T19:07:02.099Z,19.60
2018-08-17T19:09:30.183Z,19.50
2018-08-17T19:11:58.430Z,19.40
2018-08-17T19:14:26.616Z,19.30
2018-08-17T19:16:55.347Z,19.20
2018-08-17T19:19:24.374Z,19.10
2018-08-17T19:21:53.279Z,19.00
2018-08-17T19:24:21.506Z,19.00
2018-08-17T19:26:49.607Z,18.90
2018-08-17T19:29:17.829Z,18.80
2018-08-17T19:31:55.551Z,18.70
2018-08-17T19:34:27.021Z,18.70
2018-08-17T19:36:55.530Z,18.50
2018-08-17T19:39:30.817Z,18.40
2018-08-17T19:41:59.361Z,18.30
2018-08-17T19:44:27.709Z,18.20
2018-08-17T19:46:55.932Z,18.20
2018-08-17T19:49:30.957Z,18.10
2018-08-17T19:51:59.183Z,18.00
2018-08-17T19:54:27.113Z,18.00
2018-08-17T19:56:55.575Z,18.00
2018-08-17T19:59:23.792Z,17.90
2018-08-17T20:01:51.854Z,17.90
2018-08-17T20:04:20.009Z,17.80
2018-08-17T20:06:48.223Z,17.70
2018-08-17T20:09:16.335Z,17.60
2018-08-17T20:11:44.549Z,17.50
2018-08-17T20:14:12.724Z,17.50
2018-08-17T20:16:41.556Z,17.40
2018-08-17T20:19:10.740Z,17.30
2018-08-17T20:21:39.055Z,17.30
2018-08-17T20:24:07.597Z,17.20
2018-08-17T20:26:35.950Z,17.20
2018-08-17T20:29:04.486Z,17.20
2018-08-17T20:31:32.656Z,17.20
2018-08-17T20:34:01.011Z,17.10
2018-08-17T20:36:29.940Z,17.10
2018-08-17T20:38:58.395Z,17.10
2018-08-17T20:41:26.515Z,17.10
2018-08-17T20:43:55.806Z,17.10
2018-08-17T20:46:24.135Z,17.00
2018-08-17T20:48:52.294Z,16.90
2018-08-17T20:51:24.485Z,16.80
2018-08-17T20:53:54.713Z,16.70
2018-08-17T20:56:22.582Z,16.70
2018-08-17T20:58:50.465Z,16.70
2018-08-17T21:01:18.321Z,16.60
2018-08-17T21:03:46.125Z,16.60
2018-08-17T21:06:13.960Z,16.50
2018-08-17T21:08:41.891Z,16.50
2018-08-17T21:11:09.822Z,16.50
2018-08-17T21:13:37.709Z,16.50
2018-08-17T21:16:05.597Z,16.50
2018-08-17T21:18:33.475Z,16.40
2018-08-17T21:21:01.325Z,16.40
2018-08-17T21:23:29.200Z,16.40
2018-08-17T21:25:57.052Z,16.30
2018-08-17T21:28:25.063Z,16.30
2018-08-17T21:30:52.920Z,16.30
2018-08-17T21:33:20.753Z,16.20
2018-08-17T21:35:48.581Z,16.20
2018-08-17T21:38:16.470Z,16.20
2018-08-17T21:40:44.316Z,16.10
2018-08-17T21:43:12.157Z,16.10
2018-08-17T21:45:40.145Z,16.10
2018-08-17T21:48:14.360Z,16.00
2018-08-17T21:50:42.537Z,16.00
2018-08-17T21:53:10.377Z,15.90
2018-08-17T21:55:38.210Z,15.90
2018-08-17T21:58:06.664Z,15.90
2018-08-17T22:00:35.436Z,15.80
2018-08-17T22:03:08.221Z,15.80
2018-08-17T22:05:38.862Z,15.70
2018-08-17T22:08:07.034Z,15.70
2018-08-17T22:10:35.212Z,15.60
2018-08-17T22:13:03.599Z,15.60
2018-08-17T22:15:31.930Z,15.60
2018-08-17T22:17:59.889Z,15.60
2018-08-17T22:20:27.974Z,15.60
2018-08-17T22:22:57.813Z,15.60
2018-08-17T22:25:26.081Z,15.50
2018-08-17T22:27:54.088Z,15.50
2018-08-17T22:30:24.558Z,15.50
2018-08-17T22:32:52.740Z,15.50
2018-08-17T22:35:21.171Z,15.50
2018-08-17T22:37:50.566Z,15.40
2018-08-17T22:40:19.415Z,15.30
2018-08-17T22:42:48.706Z,15.30
2018-08-17T22:45:17.111Z,15.20
2018-08-17T22:47:45.396Z,15.20
2018-08-17T22:50:20.100Z,15.20
2018-08-17T22:52:48.086Z,15.30
2018-08-17T22:55:17.501Z,15.20
2018-08-17T22:57:45.569Z,15.20
2018-08-17T23:00:30.185Z,15.20
2018-08-17T23:02:59.602Z,15.10
2018-08-17T23:05:30.555Z,15.10
2018-08-17T23:07:59.508Z,15.10
2018-08-17T23:10:28.495Z,15.00
2018-08-17T23:12:57.299Z,15.00
2018-08-17T23:15:25.302Z,14.90
2018-08-17T23:17:57.528Z,14.90
2018-08-17T23:20:30.933Z,14.80
2018-08-17T23:23:00.114Z,14.90
2018-08-17T23:25:28.457Z,14.90
2018-08-17T23:27:56.857Z,14.80
2018-08-17T23:30:25.153Z,14.80
2018-08-17T23:32:53.429Z,14.80
2018-08-17T23:35:21.653Z,14.70
2018-08-17T23:37:49.875Z,14.70
2018-08-17T23:40:18.209Z,14.70
2018-08-17T23:42:46.401Z,14.60
2018-08-17T23:45:15.803Z,14.60
2018-08-17T23:47:43.976Z,14.60
2018-08-17T23:50:13.093Z,14.70
2018-08-17T23:52:41.313Z,14.70
2018-08-17T23:55:11.071Z,14.70
2018-08-17T23:57:39.215Z,14.70
